createdAt,value
2017-11-09T00:00:21.505Z,8.76
2017-11-09T00:02:51.874Z,8.73
2017-11-09T00:05:24.966Z,8.73
2017-11-09T00:07:52.448Z,8.76
2017-11-09T00:10:19.907Z,8.77
2017-11-09T00:12:47.395Z,8.72
2017-11-09T00:15:14.852Z,8.68
2017-11-09T00:17:42.337Z,8.68
2017-11-09T00:20:09.798Z,8.67
2017-11-09T00:22:37.268Z,8.62
2017-11-09T00:25:04.731Z,8.63
2017-11-09T00:27:32.205Z,8.54
2017-11-09T00:29:59.714Z,8.66
2017-11-09T00:32:27.190Z,8.68
2017-11-09T00:34:54.659Z,8.66
2017-11-09T00:37:22.144Z,8.78
2017-11-09T00:39:49.635Z,8.77
2017-11-09T00:42:17.126Z,8.77
2017-11-09T00:44:44.614Z,8.71
2017-11-09T00:47:12.115Z,8.67
2017-11-09T00:49:39.594Z,8.63
2017-11-09T00:52:07.079Z,8.68
2017-11-09T00:54:34.572Z,8.69
2017-11-09T00:57:02.133Z,8.78
2017-11-09T00:59:29.619Z,8.73
2017-11-09T01:01:57.148Z,9.04
2017-11-09T01:04:24.712Z,8.91
2017-11-09T01:06:52.199Z,8.80
2017-11-09T01:09:19.689Z,8.76
2017-11-09T01:11:47.150Z,9.04
2017-11-09T01:14:14.728Z,8.93
2017-11-09T01:16:42.193Z,8.92
2017-11-09T01:19:09.659Z,8.95
2017-11-09T01:21:37.124Z,8.99
2017-11-09T01:24:04.632Z,8.94
2017-11-09T01:26:32.080Z,8.96
2017-11-09T01:28:59.559Z,8.85
2017-11-09T01:31:27.028Z,8.93
2017-11-09T01:33:54.485Z,8.78
2017-11-09T01:36:21.972Z,8.80
2017-11-09T01:38:49.421Z,8.74
2017-11-09T01:41:16.893Z,8.79
2017-11-09T01:43:44.412Z,8.75
2017-11-09T01:46:11.873Z,8.74
2017-11-09T01:48:39.316Z,8.71
2017-11-09T01:51:06.784Z,8.78
2017-11-09T01:53:34.230Z,8.70
2017-11-09T01:56:01.682Z,8.72
2017-11-09T01:58:29.128Z,8.69
2017-11-09T02:00:56.587Z,8.67
2017-11-09T02:03:24.034Z,8.70
2017-11-09T02:05:51.496Z,8.68
2017-11-09T02:08:18.949Z,8.63
2017-11-09T02:10:46.537Z,8.66
2017-11-09T02:13:13.988Z,8.59
2017-11-09T02:15:41.426Z,8.54
2017-11-09T02:18:08.883Z,8.47
2017-11-09T02:20:36.354Z,8.44
2017-11-09T02:23:03.928Z,8.46
2017-11-09T02:25:31.367Z,8.52
2017-11-09T02:27:58.820Z,8.59
2017-11-09T02:30:26.261Z,8.81
2017-11-09T02:32:53.715Z,8.67
2017-11-09T02:35:21.146Z,8.59
2017-11-09T02:37:48.719Z,8.58
2017-11-09T02:40:16.162Z,8.58
2017-11-09T02:42:43.629Z,8.54
2017-11-09T02:45:11.080Z,8.51
2017-11-09T02:47:38.591Z,8.61
2017-11-09T02:50:06.031Z,8.58
2017-11-09T02:52:33.470Z,8.58
2017-11-09T02:55:00.952Z,8.72
2017-11-09T02:57:28.396Z,8.81
2017-11-09T02:59:55.978Z,8.78
2017-11-09T03:02:23.419Z,8.88
2017-11-09T03:04:50.873Z,8.85
2017-11-09T03:07:18.321Z,9.14
2017-11-09T03:09:45.902Z,9.07
2017-11-09T03:12:13.331Z,8.98
2017-11-09T03:14:40.813Z,8.80
2017-11-09T03:17:08.261Z,8.75
2017-11-09T03:19:35.728Z,8.72
2017-11-09T03:22:03.175Z,8.70
2017-11-09T03:24:30.655Z,8.68
2017-11-09T03:26:58.102Z,8.67
2017-11-09T03:29:25.543Z,8.65
2017-11-09T03:31:53.014Z,8.64
2017-11-09T03:34:20.460Z,8.61
2017-11-09T03:36:47.911Z,8.64
2017-11-09T03:39:15.354Z,8.74
2017-11-09T03:41:42.827Z,8.77
2017-11-09T03:44:10.288Z,8.63
2017-11-09T03:46:37.753Z,8.69
2017-11-09T03:49:05.205Z,8.71
2017-11-09T03:51:32.726Z,8.75
2017-11-09T03:54:00.163Z,8.76
2017-11-09T03:56:27.689Z,8.93
2017-11-09T03:58:55.155Z,8.78
2017-11-09T04:01:22.694Z,8.76
2017-11-09T04:03:50.247Z,8.77
2017-11-09T04:06:17.726Z,8.79
2017-11-09T04:08:45.199Z,8.87
2017-11-09T04:11:12.715Z,8.85
2017-11-09T04:13:40.184Z,8.84
2017-11-09T04:16:07.627Z,8.80
2017-11-09T04:18:35.188Z,8.72
2017-11-09T04:21:02.619Z,8.66
2017-11-09T04:23:30.092Z,8.69
2017-11-09T04:25:57.538Z,8.64
2017-11-09T04:28:24.991Z,8.70
2017-11-09T04:30:52.423Z,8.61
2017-11-09T04:33:19.883Z,8.68
2017-11-09T04:35:47.329Z,8.67
2017-11-09T04:38:14.786Z,8.75
2017-11-09T04:40:42.308Z,8.72
2017-11-09T04:43:09.806Z,8.69
2017-11-09T04:45:37.238Z,8.68
2017-11-09T04:48:04.711Z,8.65
2017-11-09T04:50:32.152Z,8.69
2017-11-09T04:52:59.597Z,8.68
2017-11-09T04:55:27.079Z,8.71
2017-11-09T04:57:54.532Z,8.70
2017-11-09T05:00:22.001Z,8.83
2017-11-09T05:02:49.448Z,8.77
2017-11-09T05:05:16.914Z,8.80
2017-11-09T05:07:44.418Z,8.83
2017-11-09T05:10:11.911Z,8.76
2017-11-09T05:12:39.377Z,8.79
2017-11-09T05:15:06.891Z,8.86
2017-11-09T05:17:34.412Z,8.79
2017-11-09T05:20:01.885Z,8.82
2017-11-09T05:22:29.336Z,8.86
2017-11-09T05:24:56.823Z,8.80
2017-11-09T05:27:24.287Z,8.72
2017-11-09T05:29:51.760Z,8.76
2017-11-09T05:32:19.212Z,8.82
2017-11-09T05:34:46.678Z,8.82
2017-11-09T05:37:14.127Z,8.86
2017-11-09T05:39:41.575Z,8.82
2017-11-09T05:42:09.038Z,8.80
2017-11-09T05:44:36.483Z,8.81
2017-11-09T05:47:03.939Z,8.79
2017-11-09T05:49:31.479Z,8.85
2017-11-09T05:51:58.945Z,8.84
2017-11-09T05:54:26.403Z,8.82
2017-11-09T05:56:53.965Z,9.20
2017-11-09T05:59:21.440Z,9.07
2017-11-09T06:01:48.901Z,9.35
2017-11-09T06:04:16.348Z,9.17
2017-11-09T06:06:43.816Z,9.07
2017-11-09T06:09:11.352Z,9.32
2017-11-09T06:11:38.852Z,9.12
2017-11-09T06:14:06.383Z,9.46
2017-11-09T06:16:33.930Z,9.17
2017-11-09T06:19:01.500Z,9.18
2017-11-09T06:21:28.956Z,9.01
2017-11-09T06:23:56.436Z,8.93
2017-11-09T06:26:23.888Z,8.81
2017-11-09T06:28:51.380Z,8.90
2017-11-09T06:31:18.839Z,8.90
2017-11-09T06:33:46.352Z,8.86
2017-11-09T06:36:13.800Z,8.88
2017-11-09T06:38:41.272Z,8.99
2017-11-09T06:41:08.720Z,8.97
2017-11-09T06:43:36.247Z,9.07
2017-11-09T06:46:03.695Z,8.96
2017-11-09T06:48:31.160Z,8.95
2017-11-09T06:50:58.607Z,8.82
2017-11-09T06:53:26.185Z,8.84
2017-11-09T06:55:53.680Z,8.92
2017-11-09T06:58:21.163Z,8.85
2017-11-09T07:00:48.617Z,8.82
2017-11-09T07:03:16.082Z,8.82
2017-11-09T07:05:43.538Z,8.86
2017-11-09T07:08:10.999Z,8.99
2017-11-09T07:10:38.514Z,8.93
2017-11-09T07:13:05.968Z,9.19
2017-11-09T07:15:33.495Z,9.56
2017-11-09T07:18:00.939Z,9.08
2017-11-09T07:20:28.498Z,9.03
2017-11-09T07:22:55.952Z,9.08
2017-11-09T07:25:23.423Z,9.05
2017-11-09T07:27:50.873Z,8.97
2017-11-09T07:30:18.337Z,8.98
2017-11-09T07:32:45.785Z,8.89
2017-11-09T07:35:13.345Z,8.96
2017-11-09T07:37:40.796Z,8.97
2017-11-09T07:40:08.275Z,8.99
2017-11-09T07:42:35.828Z,8.99
2017-11-09T07:45:03.299Z,8.99
2017-11-09T07:47:30.763Z,9.03
2017-11-09T07:49:58.271Z,9.07
2017-11-09T07:52:25.716Z,9.25
2017-11-09T07:54:53.209Z,9.29
2017-11-09T07:57:20.671Z,9.29
2017-11-09T07:59:48.131Z,9.34
2017-11-09T08:02:15.676Z,9.48
2017-11-09T08:04:43.137Z,9.42
2017-11-09T08:07:10.643Z,9.48
2017-11-09T08:09:38.119Z,9.49
2017-11-09T08:12:05.583Z,9.43
2017-11-09T08:14:33.048Z,9.44
2017-11-09T08:17:00.521Z,9.52
2017-11-09T08:19:27.982Z,9.56
2017-11-09T08:21:55.455Z,9.60
2017-11-09T08:24:25.639Z,9.67
2017-11-09T08:26:55.355Z,9.69
2017-11-09T08:29:25.385Z,10.05
2017-11-09T08:31:55.306Z,9.79
2017-11-09T08:34:22.756Z,9.78
2017-11-09T08:36:50.307Z,9.67
2017-11-09T08:39:18.019Z,9.69
2017-11-09T08:41:45.527Z,9.69
2017-11-09T08:44:13.062Z,9.65
2017-11-09T08:46:40.547Z,9.94
2017-11-09T08:49:08.007Z,9.76
2017-11-09T08:51:35.576Z,9.74
2017-11-09T08:54:03.067Z,10.03
2017-11-09T08:56:30.520Z,9.85
2017-11-09T08:58:57.992Z,9.81
2017-11-09T09:01:25.503Z,9.88
2017-11-09T09:03:52.993Z,9.80
2017-11-09T09:06:20.465Z,9.75
2017-11-09T09:08:47.937Z,9.73
2017-11-09T09:11:15.375Z,9.64
2017-11-09T09:13:42.844Z,9.75
2017-11-09T09:16:10.301Z,9.76
2017-11-09T09:18:37.760Z,9.71
2017-11-09T09:21:05.229Z,9.69
2017-11-09T09:23:32.704Z,9.67
2017-11-09T09:26:02.465Z,9.76
2017-11-09T09:28:30.498Z,9.74
2017-11-09T09:30:58.761Z,9.78
2017-11-09T09:33:37.820Z,9.82
2017-11-09T09:36:22.120Z,9.83
2017-11-09T09:38:56.583Z,9.88
2017-11-09T09:41:34.689Z,9.87
2017-11-09T09:44:02.140Z,9.82
2017-11-09T09:46:29.612Z,9.84
2017-11-09T09:48:57.064Z,9.92
2017-11-09T09:51:24.543Z,10.19
2017-11-09T09:53:52.071Z,10.21
2017-11-09T09:56:19.543Z,10.12
2017-11-09T09:58:47.024Z,10.33
2017-11-09T10:01:14.490Z,10.38
2017-11-09T10:03:41.949Z,10.36
2017-11-09T10:06:09.427Z,10.70
2017-11-09T10:08:36.880Z,10.62
2017-11-09T10:11:04.344Z,10.37
2017-11-09T10:13:31.898Z,10.59
2017-11-09T10:15:59.387Z,10.44
2017-11-09T10:18:26.830Z,10.41
2017-11-09T10:20:54.307Z,10.39
2017-11-09T10:23:21.786Z,10.31
2017-11-09T10:25:49.283Z,10.60
2017-11-09T10:28:16.751Z,10.72
2017-11-09T10:30:44.308Z,10.49
2017-11-09T10:33:11.876Z,10.27
2017-11-09T10:35:39.336Z,10.26
2017-11-09T10:38:06.804Z,10.11
2017-11-09T10:40:34.259Z,10.27
2017-11-09T10:43:01.732Z,10.49
2017-11-09T10:45:29.187Z,10.25
2017-11-09T10:47:56.659Z,10.48
2017-11-09T10:50:24.167Z,10.21
2017-11-09T10:52:51.721Z,10.59
2017-11-09T10:55:19.193Z,10.53
2017-11-09T10:57:46.729Z,10.45
2017-11-09T11:00:14.195Z,10.43
2017-11-09T11:02:41.651Z,10.40
2017-11-09T11:05:09.119Z,10.39
2017-11-09T11:07:36.581Z,10.74
2017-11-09T11:10:04.071Z,10.54
2017-11-09T11:12:31.529Z,10.73
2017-11-09T11:14:59.016Z,10.66
2017-11-09T11:17:26.464Z,10.43
2017-11-09T11:19:53.929Z,10.74
2017-11-09T11:22:21.392Z,10.66
2017-11-09T11:24:49.280Z,10.33
2017-11-09T11:27:16.848Z,10.23
2017-11-09T11:29:44.317Z,10.25
2017-11-09T11:32:11.796Z,10.73
2017-11-09T11:34:39.243Z,10.59
2017-11-09T11:37:14.195Z,10.56
2017-11-09T11:39:41.707Z,10.33
2017-11-09T11:42:09.179Z,10.29
2017-11-09T11:44:36.638Z,10.18
2017-11-09T11:47:04.117Z,10.15
2017-11-09T11:49:31.592Z,10.19
2017-11-09T11:51:59.128Z,10.30
2017-11-09T11:54:26.616Z,10.31
2017-11-09T11:56:54.092Z,10.39
2017-11-09T11:59:21.556Z,10.31
2017-11-09T12:01:49.031Z,10.24
2017-11-09T12:04:22.156Z,10.25
2017-11-09T12:06:49.636Z,10.13
2017-11-09T12:09:17.098Z,10.10
2017-11-09T12:12:03.393Z,10.15
2017-11-09T12:14:30.853Z,10.14
2017-11-09T12:16:58.412Z,10.21
2017-11-09T12:19:25.868Z,10.14
2017-11-09T12:21:53.330Z,10.19
2017-11-09T12:24:20.799Z,10.18
2017-11-09T12:26:48.335Z,10.19
2017-11-09T12:29:15.799Z,10.23
2017-11-09T12:31:43.247Z,10.31
2017-11-09T12:34:10.725Z,10.53
2017-11-09T12:36:38.176Z,10.89
2017-11-09T12:39:05.678Z,10.95
2017-11-09T12:41:33.136Z,11.01
2017-11-09T12:44:00.608Z,10.80
2017-11-09T12:46:30.450Z,10.65
2017-11-09T12:48:57.920Z,10.79
2017-11-09T12:51:25.391Z,10.78
2017-11-09T12:53:52.865Z,10.62
2017-11-09T12:56:20.316Z,10.67
2017-11-09T12:58:47.792Z,10.73
2017-11-09T13:01:15.292Z,10.53
2017-11-09T13:03:42.871Z,10.56
2017-11-09T13:06:10.347Z,10.78
2017-11-09T13:08:37.791Z,10.72
2017-11-09T13:11:05.259Z,10.69
2017-11-09T13:13:32.702Z,10.84
2017-11-09T13:16:00.187Z,10.94
2017-11-09T13:18:27.654Z,10.68
2017-11-09T13:20:55.147Z,10.73
2017-11-09T13:23:22.598Z,10.64
2017-11-09T13:25:50.070Z,10.61
2017-11-09T13:28:17.536Z,10.61
2017-11-09T13:30:45.193Z,10.67
2017-11-09T13:33:12.640Z,10.54
2017-11-09T13:35:40.464Z,10.56
2017-11-09T13:38:07.936Z,10.54
2017-11-09T13:40:35.383Z,10.49
2017-11-09T13:43:04.676Z,10.54
2017-11-09T13:45:32.140Z,10.48
2017-11-09T13:47:59.625Z,10.49
2017-11-09T13:50:27.193Z,10.42
2017-11-09T13:52:54.787Z,10.48
2017-11-09T13:55:22.372Z,10.60
2017-11-09T13:57:49.852Z,10.54
2017-11-09T14:00:17.320Z,10.52
2017-11-09T14:02:44.792Z,10.48
2017-11-09T14:05:15.121Z,10.56
2017-11-09T14:07:42.598Z,10.58
2017-11-09T14:10:12.055Z,10.60
2017-11-09T14:12:39.525Z,10.65
2017-11-09T14:15:06.988Z,10.59
2017-11-09T14:17:34.475Z,10.60
2017-11-09T14:20:01.922Z,10.60
2017-11-09T14:22:29.445Z,10.72
2017-11-09T14:24:56.920Z,10.62
2017-11-09T14:27:24.379Z,10.68
2017-11-09T14:29:51.902Z,10.67
2017-11-09T14:32:19.398Z,10.63
2017-11-09T14:34:46.870Z,10.59
2017-11-09T14:37:14.331Z,10.63
2017-11-09T14:39:42.599Z,10.54
2017-11-09T14:42:10.058Z,10.38
2017-11-09T14:44:37.527Z,10.44
2017-11-09T14:47:11.359Z,10.46
2017-11-09T14:49:38.823Z,10.41
2017-11-09T14:52:06.310Z,10.85
2017-11-09T14:54:33.862Z,10.69
2017-11-09T14:57:01.421Z,10.80
2017-11-09T14:59:28.900Z,10.60
2017-11-09T15:01:56.413Z,10.52
2017-11-09T15:04:23.895Z,10.51
2017-11-09T15:06:51.453Z,10.48
2017-11-09T15:09:18.975Z,10.38
2017-11-09T15:11:46.455Z,10.31
2017-11-09T15:14:13.908Z,10.46
2017-11-09T15:16:41.382Z,10.36
2017-11-09T15:19:08.849Z,10.37
2017-11-09T15:21:37.279Z,10.36
2017-11-09T15:24:04.722Z,10.41
2017-11-09T15:26:32.207Z,10.42
2017-11-09T15:28:59.688Z,10.47
2017-11-09T15:31:27.154Z,10.26
2017-11-09T15:33:54.757Z,10.26
2017-11-09T15:36:22.242Z,10.20
2017-11-09T15:38:49.725Z,10.21
2017-11-09T15:41:17.210Z,10.18
2017-11-09T15:43:44.723Z,10.23
2017-11-09T15:46:12.191Z,10.20
2017-11-09T15:48:39.756Z,10.15
2017-11-09T15:51:07.240Z,10.16
2017-11-09T15:53:34.715Z,10.20
2017-11-09T15:56:02.164Z,10.19
2017-11-09T15:58:29.652Z,10.23
2017-11-09T16:00:57.104Z,10.20
2017-11-09T16:03:24.581Z,10.19
2017-11-09T16:05:52.031Z,10.17
2017-11-09T16:08:19.505Z,10.17
2017-11-09T16:10:46.967Z,10.24
2017-11-09T16:13:14.517Z,10.19
2017-11-09T16:15:41.974Z,10.20
2017-11-09T16:18:09.449Z,10.07
2017-11-09T16:20:38.844Z,9.94
2017-11-09T16:23:06.388Z,9.95
2017-11-09T16:25:33.834Z,9.89
2017-11-09T16:28:01.315Z,10.18
2017-11-09T16:30:28.832Z,9.93
2017-11-09T16:32:56.311Z,9.86
2017-11-09T16:35:23.796Z,9.80
2017-11-09T16:37:51.256Z,9.82
2017-11-09T16:40:18.781Z,9.82
2017-11-09T16:42:46.223Z,9.79
2017-11-09T16:45:13.700Z,9.86
2017-11-09T16:47:41.147Z,9.84
2017-11-09T16:50:08.658Z,9.80
2017-11-09T16:52:41.020Z,9.66
2017-11-09T16:55:08.488Z,9.76
2017-11-09T16:57:36.008Z,9.67
2017-11-09T17:00:03.496Z,9.62
2017-11-09T17:02:30.996Z,9.52
2017-11-09T17:04:58.566Z,9.51
2017-11-09T17:07:26.132Z,9.41
2017-11-09T17:09:53.697Z,9.43
2017-11-09T17:12:21.168Z,9.27
2017-11-09T17:14:49.428Z,9.25
2017-11-09T17:17:16.884Z,9.34
2017-11-09T17:19:44.351Z,9.32
2017-11-09T17:22:14.666Z,9.31
2017-11-09T17:24:42.148Z,9.24
2017-11-09T17:27:09.671Z,9.17
2017-11-09T17:29:37.169Z,9.15
2017-11-09T17:32:04.615Z,9.07
2017-11-09T17:34:32.087Z,9.08
2017-11-09T17:36:59.614Z,9.07
2017-11-09T17:39:27.075Z,8.86
2017-11-09T17:41:58.606Z,8.62
2017-11-09T17:44:26.066Z,8.29
2017-11-09T17:46:53.530Z,8.18
2017-11-09T17:49:20.998Z,8.22
2017-11-09T17:51:48.546Z,8.03
2017-11-09T17:54:16.106Z,7.85
2017-11-09T17:56:48.382Z,7.69
2017-11-09T17:59:15.833Z,7.67
2017-11-09T18:01:43.357Z,7.59
2017-11-09T18:04:10.799Z,7.41
2017-11-09T18:06:38.260Z,7.18
2017-11-09T18:09:05.735Z,7.05
2017-11-09T18:11:33.244Z,6.96
2017-11-09T18:14:00.690Z,6.91
2017-11-09T18:16:28.170Z,7.01
2017-11-09T18:18:55.612Z,6.77
2017-11-09T18:21:23.055Z,7.01
2017-11-09T18:23:51.404Z,7.03
2017-11-09T18:26:18.894Z,6.89
2017-11-09T18:28:46.351Z,6.78
2017-11-09T18:31:13.951Z,6.78
2017-11-09T18:33:41.502Z,6.69
2017-11-09T18:36:08.999Z,6.65
2017-11-09T18:38:36.472Z,6.53
2017-11-09T18:41:03.921Z,6.50
2017-11-09T18:43:31.382Z,6.37
2017-11-09T18:45:58.827Z,6.26
2017-11-09T18:48:26.295Z,6.27
2017-11-09T18:50:53.757Z,6.12
2017-11-09T18:53:21.232Z,6.17
2017-11-09T18:55:48.691Z,6.20
2017-11-09T18:58:17.034Z,6.44
2017-11-09T19:00:44.475Z,6.39
2017-11-09T19:03:12.053Z,6.28
2017-11-09T19:05:39.607Z,6.54
2017-11-09T19:08:07.050Z,6.44
2017-11-09T19:10:34.527Z,6.44
2017-11-09T19:13:01.984Z,6.43
2017-11-09T19:15:29.451Z,6.40
2017-11-09T19:17:56.890Z,6.52
2017-11-09T19:20:24.351Z,6.50
2017-11-09T19:22:51.964Z,6.41
2017-11-09T19:25:19.995Z,6.36
2017-11-09T19:27:47.455Z,6.45
2017-11-09T19:30:14.957Z,6.47
2017-11-09T19:32:42.411Z,6.63
2017-11-09T19:35:09.890Z,6.59
2017-11-09T19:37:37.351Z,6.56
2017-11-09T19:40:04.814Z,6.57
2017-11-09T19:42:32.277Z,6.50
2017-11-09T19:44:59.737Z,6.50
2017-11-09T19:47:27.200Z,6.50
2017-11-09T19:49:54.663Z,6.61
2017-11-09T19:52:22.221Z,6.62
2017-11-09T19:54:49.683Z,6.67
2017-11-09T19:57:17.152Z,6.64
2017-11-09T19:59:44.666Z,6.67
2017-11-09T20:02:12.222Z,6.79
2017-11-09T20:04:39.678Z,6.89
2017-11-09T20:07:07.149Z,6.94
2017-11-09T20:09:34.625Z,7.03
2017-11-09T20:12:02.149Z,7.13
2017-11-09T20:14:29.617Z,7.12
2017-11-09T20:16:57.169Z,7.09
2017-11-09T20:19:24.627Z,7.22
2017-11-09T20:21:52.068Z,7.31
2017-11-09T20:24:19.649Z,7.37
2017-11-09T20:26:47.129Z,7.42
2017-11-09T20:29:14.599Z,7.48
2017-11-09T20:31:42.049Z,7.53
2017-11-09T20:34:09.570Z,7.54
2017-11-09T20:36:37.020Z,7.67
2017-11-09T20:39:04.494Z,7.68
2017-11-09T20:41:31.939Z,7.66
2017-11-09T20:43:59.400Z,7.73
2017-11-09T20:46:26.851Z,7.73
2017-11-09T20:48:54.324Z,7.75
2017-11-09T20:51:21.767Z,7.62
2017-11-09T20:53:49.335Z,7.72
2017-11-09T20:56:16.791Z,8.06
2017-11-09T20:58:44.251Z,8.08
2017-11-09T21:01:11.720Z,8.14
2017-11-09T21:03:39.209Z,8.06
2017-11-09T21:06:06.688Z,7.97
2017-11-09T21:08:34.134Z,7.95
2017-11-09T21:11:01.616Z,7.89
2017-11-09T21:13:29.079Z,7.93
2017-11-09T21:15:56.643Z,8.01
2017-11-09T21:18:24.105Z,8.01
2017-11-09T21:20:51.603Z,8.02
2017-11-09T21:23:19.043Z,8.03
2017-11-09T21:25:46.524Z,8.15
2017-11-09T21:28:13.964Z,8.22
2017-11-09T21:30:41.456Z,8.15
2017-11-09T21:33:08.900Z,8.14
2017-11-09T21:35:36.392Z,8.10
2017-11-09T21:38:03.851Z,8.05
2017-11-09T21:40:31.308Z,8.03
2017-11-09T21:42:58.779Z,7.96
2017-11-09T21:45:26.264Z,7.91
2017-11-09T21:47:53.736Z,7.88
2017-11-09T21:50:21.190Z,7.78
2017-11-09T21:52:48.657Z,7.77
2017-11-09T21:55:16.099Z,7.73
2017-11-09T21:57:43.615Z,7.74
2017-11-09T22:00:11.170Z,7.70
2017-11-09T22:02:38.648Z,7.66
2017-11-09T22:05:06.185Z,7.62
2017-11-09T22:07:33.647Z,7.62
2017-11-09T22:10:01.197Z,7.60
2017-11-09T22:12:28.656Z,7.62
2017-11-09T22:14:56.215Z,7.62
2017-11-09T22:17:23.774Z,7.51
2017-11-09T22:19:51.253Z,7.49
2017-11-09T22:22:18.716Z,7.36
2017-11-09T22:24:46.241Z,7.31
2017-11-09T22:27:13.694Z,7.16
2017-11-09T22:29:41.159Z,7.10
2017-11-09T22:32:08.728Z,6.99
2017-11-09T22:34:36.202Z,7.07
2017-11-09T22:37:03.645Z,7.08
2017-11-09T22:39:31.118Z,7.16
2017-11-09T22:41:58.572Z,7.07
2017-11-09T22:44:26.027Z,6.87
2017-11-09T22:46:53.484Z,6.92
2017-11-09T22:49:20.993Z,6.84
2017-11-09T22:51:48.451Z,6.93
2017-11-09T22:54:15.906Z,6.84
2017-11-09T22:56:43.399Z,6.90
2017-11-09T22:59:10.846Z,6.92
2017-11-09T23:01:38.327Z,6.80
2017-11-09T23:04:05.857Z,6.72
2017-11-09T23:06:33.344Z,6.59
2017-11-09T23:09:00.790Z,6.67
2017-11-09T23:11:28.277Z,6.76
2017-11-09T23:13:55.729Z,6.77
2017-11-09T23:16:23.244Z,6.79
2017-11-09T23:18:50.700Z,6.88
2017-11-09T23:21:18.189Z,7.05
2017-11-09T23:23:45.630Z,6.98
2017-11-09T23:26:13.174Z,7.04
2017-11-09T23:28:40.621Z,7.11
2017-11-09T23:31:08.071Z,7.16
2017-11-09T23:33:35.541Z,7.29
2017-11-09T23:36:03.100Z,7.29
2017-11-09T23:38:30.562Z,7.33
2017-11-09T23:40:58.003Z,7.37
2017-11-09T23:43:25.474Z,7.47
2017-11-09T23:45:52.919Z,7.54
2017-11-09T23:48:20.399Z,7.61
2017-11-09T23:50:47.933Z,7.58
2017-11-09T23:53:15.409Z,7.61
2017-11-09T23:55:42.861Z,7.64
2017-11-09T23:58:10.330Z,7.62
